sensor_id;sensor_type;location;lat;lon;timestamp;P1;durP1;ratioP1;P2;durP2;ratioP2
75785;SDS011;64402;44.708;37.644;2022-11-20T00:01:31;14.98;;;4.78;;
75785;SDS011;64402;44.708;37.644;2022-11-20T00:03:57;12.48;;;4.40;;
75785;SDS011;64402;44.708;37.644;2022-11-20T00:06:25;16.70;;;4.60;;
75785;SDS011;64402;44.708;37.644;2022-11-20T00:08:56;21.90;;;7.47;;
75785;SDS011;64402;44.708;37.644;2022-11-20T00:11:26;12.13;;;4.97;;
75785;SDS011;64402;44.708;37.644;2022-11-20T00:13:54;16.15;;;4.20;;
75785;SDS011;64402;44.708;37.644;2022-11-20T00:16:24;11.73;;;4.57;;
75785;SDS011;64402;44.708;37.644;2022-11-20T00:18:52;18.73;;;4.50;;
75785;SDS011;64402;44.708;37.644;2022-11-20T00:21:20;15.90;;;4.13;;
75785;SDS011;64402;44.708;37.644;2022-11-20T00:23:48;21.27;;;4.15;;
75785;SDS011;64402;44.708;37.644;2022-11-20T00:26:16;18.73;;;4.45;;
75785;SDS011;64402;44.708;37.644;2022-11-20T00:28:44;13.52;;;4.13;;
75785;SDS011;64402;44.708;37.644;2022-11-20T00:31:16;21.02;;;4.50;;
75785;SDS011;64402;44.708;37.644;2022-11-20T00:33:43;16.17;;;4.63;;
75785;SDS011;64402;44.708;37.644;2022-11-20T00:36:11;17.63;;;5.05;;
75785;SDS011;64402;44.708;37.644;2022-11-20T04:44:56;12.18;;;5.03;;
75785;SDS011;64402;44.708;37.644;2022-11-20T04:48:44;9.73;;;3.90;;
75785;SDS011;64402;44.708;37.644;2022-11-20T04:52:33;10.35;;;3.88;;
75785;SDS011;64402;44.708;37.644;2022-11-20T04:56:23;14.43;;;4.78;;
75785;SDS011;64402;44.708;37.644;2022-11-20T05:00:12;12.00;;;4.82;;
75785;SDS011;64402;44.708;37.644;2022-11-20T05:04:01;10.73;;;4.55;;
75785;SDS011;64402;44.708;37.644;2022-11-20T05:07:51;13.68;;;4.68;;
75785;SDS011;64402;44.708;37.644;2022-11-20T05:11:39;9.93;;;4.82;;
75785;SDS011;64402;44.708;37.644;2022-11-20T08:42:50;12.43;;;3.28;;
75785;SDS011;64402;44.708;37.644;2022-11-20T08:45:18;11.98;;;2.90;;
75785;SDS011;64402;44.708;37.644;2022-11-20T08:47:45;10.02;;;2.80;;
75785;SDS011;64402;44.708;37.644;2022-11-20T08:50:13;10.23;;;2.78;;
75785;SDS011;64402;44.708;37.644;2022-11-20T08:52:42;8.30;;;2.78;;
75785;SDS011;64402;44.708;37.644;2022-11-20T08:55:09;13.35;;;3.22;;
75785;SDS011;64402;44.708;37.644;2022-11-20T09:00:04;6.13;;;2.58;;
75785;SDS011;64402;44.708;37.644;2022-11-20T09:02:31;9.13;;;2.90;;
75785;SDS011;64402;44.708;37.644;2022-11-20T09:04:58;8.68;;;2.60;;
75785;SDS011;64402;44.708;37.644;2022-11-20T09:07:24;13.07;;;3.67;;
75785;SDS011;64402;44.708;37.644;2022-11-20T09:09:51;7.55;;;3.08;;
75785;SDS011;64402;44.708;37.644;2022-11-20T09:12:17;14.07;;;4.93;;
75785;SDS011;64402;44.708;37.644;2022-11-20T09:14:45;10.20;;;3.67;;
75785;SDS011;64402;44.708;37.644;2022-11-20T09:17:11;9.43;;;3.33;;
75785;SDS011;64402;44.708;37.644;2022-11-20T09:19:40;11.60;;;3.33;;
75785;SDS011;64402;44.708;37.644;2022-11-20T09:22:07;8.27;;;3.42;;
75785;SDS011;64402;44.708;37.644;2022-11-20T09:24:33;11.02;;;3.28;;
75785;SDS011;64402;44.708;37.644;2022-11-20T09:27:04;12.70;;;4.68;;
75785;SDS011;64402;44.708;37.644;2022-11-20T09:29:31;10.35;;;3.97;;
75785;SDS011;64402;44.708;37.644;2022-11-20T09:31:57;9.98;;;3.75;;
75785;SDS011;64402;44.708;37.644;2022-11-20T09:34:24;9.82;;;3.65;;
75785;SDS011;64402;44.708;37.644;2022-11-20T09:36:50;10.27;;;3.50;;
75785;SDS011;64402;44.708;37.644;2022-11-20T09:39:17;11.70;;;4.90;;
75785;SDS011;64402;44.708;37.644;2022-11-20T09:55:12;8.32;;;3.25;;
75785;SDS011;64402;44.708;37.644;2022-11-20T09:57:41;13.55;;;5.72;;
75785;SDS011;64402;44.708;37.644;2022-11-20T10:00:11;15.35;;;4.15;;
75785;SDS011;64402;44.708;37.644;2022-11-20T10:03:00;11.77;;;3.40;;
75785;SDS011;64402;44.708;37.644;2022-11-20T10:08:24;8.38;;;3.80;;
75785;SDS011;64402;44.708;37.644;2022-11-20T10:14:25;9.45;;;3.40;;
75785;SDS011;64402;44.708;37.644;2022-11-20T10:22:35;11.75;;;4.75;;
75785;SDS011;64402;44.708;37.644;2022-11-20T10:25:34;9.75;;;4.00;;
75785;SDS011;64402;44.708;37.644;2022-11-20T10:28:22;14.27;;;4.15;;
75785;SDS011;64402;44.708;37.644;2022-11-20T10:31:06;12.35;;;3.95;;
75785;SDS011;64402;44.708;37.644;2022-11-20T10:33:36;12.35;;;3.80;;
75785;SDS011;64402;44.708;37.644;2022-11-20T10:36:13;11.48;;;4.03;;
75785;SDS011;64402;44.708;37.644;2022-11-20T10:38:51;8.48;;;4.25;;
75785;SDS011;64402;44.708;37.644;2022-11-20T10:41:28;11.02;;;4.25;;
75785;SDS011;64402;44.708;37.644;2022-11-20T10:44:05;12.77;;;4.07;;
75785;SDS011;64402;44.708;37.644;2022-11-20T10:46:43;9.88;;;4.25;;
75785;SDS011;64402;44.708;37.644;2022-11-20T10:49:16;10.02;;;3.95;;
75785;SDS011;64402;44.708;37.644;2022-11-20T10:52:07;9.38;;;4.05;;
75785;SDS011;64402;44.708;37.644;2022-11-20T10:58:19;18.38;;;4.35;;
75785;SDS011;64402;44.708;37.644;2022-11-20T11:00:23;10.43;;;4.00;;
75785;SDS011;64402;44.708;37.644;2022-11-20T11:02:51;8.38;;;3.47;;
75785;SDS011;64402;44.708;37.644;2022-11-20T11:05:42;10.32;;;3.28;;
75785;SDS011;64402;44.708;37.644;2022-11-20T11:08:17;10.80;;;3.60;;
75785;SDS011;64402;44.708;37.644;2022-11-20T11:13:19;10.23;;;3.70;;
75785;SDS011;64402;44.708;37.644;2022-11-20T11:15:47;12.40;;;3.88;;
75785;SDS011;64402;44.708;37.644;2022-11-20T11:18:22;8.80;;;3.35;;
75785;SDS011;64402;44.708;37.644;2022-11-20T11:20:54;12.07;;;3.75;;
75785;SDS011;64402;44.708;37.644;2022-11-20T11:25:58;14.35;;;3.80;;
75785;SDS011;64402;44.708;37.644;2022-11-20T11:28:26;12.32;;;3.55;;
75785;SDS011;64402;44.708;37.644;2022-11-20T11:30:54;10.90;;;3.95;;
75785;SDS011;64402;44.708;37.644;2022-11-20T11:33:24;15.13;;;3.13;;
75785;SDS011;64402;44.708;37.644;2022-11-20T11:35:55;13.32;;;4.30;;
75785;SDS011;64402;44.708;37.644;2022-11-20T11:38:42;11.65;;;3.70;;
75785;SDS011;64402;44.708;37.644;2022-11-20T11:41:12;10.95;;;3.75;;
75785;SDS011;64402;44.708;37.644;2022-11-20T11:43:49;13.13;;;3.67;;
75785;SDS011;64402;44.708;37.644;2022-11-20T11:46:38;11.38;;;4.03;;
75785;SDS011;64402;44.708;37.644;2022-11-20T11:51:41;15.35;;;3.90;;
75785;SDS011;64402;44.708;37.644;2022-11-20T11:54:59;11.73;;;4.15;;
75785;SDS011;64402;44.708;37.644;2022-11-20T12:00:01;14.40;;;3.88;;
75785;SDS011;64402;44.708;37.644;2022-11-20T12:13:44;12.50;;;3.58;;
75785;SDS011;64402;44.708;37.644;2022-11-20T12:16:33;11.02;;;3.67;;
75785;SDS011;64402;44.708;37.644;2022-11-20T12:19:03;12.20;;;3.97;;
75785;SDS011;64402;44.708;37.644;2022-11-20T12:21:38;12.68;;;3.80;;
75785;SDS011;64402;44.708;37.644;2022-11-20T12:43:22;9.73;;;3.13;;
75785;SDS011;64402;44.708;37.644;2022-11-20T12:49:08;11.07;;;3.45;;
75785;SDS011;64402;44.708;37.644;2022-11-20T12:52:01;10.25;;;3.70;;
75785;SDS011;64402;44.708;37.644;2022-11-20T12:54:42;13.52;;;3.70;;
75785;SDS011;64402;44.708;37.644;2022-11-20T13:05:19;13.38;;;4.25;;
75785;SDS011;64402;44.708;37.644;2022-11-20T13:07:50;10.93;;;4.38;;
75785;SDS011;64402;44.708;37.644;2022-11-20T13:10:21;11.55;;;3.92;;
75785;SDS011;64402;44.708;37.644;2022-11-20T13:13:00;12.00;;;4.38;;
75785;SDS011;64402;44.708;37.644;2022-11-20T13:15:42;11.52;;;4.45;;
75785;SDS011;64402;44.708;37.644;2022-11-20T13:18:22;12.32;;;4.72;;
75785;SDS011;64402;44.708;37.644;2022-11-20T13:20:49;10.85;;;4.03;;
75785;SDS011;64402;44.708;37.644;2022-11-20T13:25:50;10.13;;;4.00;;
75785;SDS011;64402;44.708;37.644;2022-11-20T13:30:48;14.93;;;4.63;;
75785;SDS011;64402;44.708;37.644;2022-11-20T13:36:01;11.68;;;4.13;;
75785;SDS011;64402;44.708;37.644;2022-11-20T13:38:47;10.18;;;4.60;;
75785;SDS011;64402;44.708;37.644;2022-11-20T13:46:55;11.05;;;4.28;;
75785;SDS011;64402;44.708;37.644;2022-11-20T13:57:52;13.65;;;4.38;;
75785;SDS011;64402;44.708;37.644;2022-11-20T14:00:27;17.52;;;5.10;;
75785;SDS011;64402;44.708;37.644;2022-11-20T14:05:36;16.02;;;7.68;;
75785;SDS011;64402;44.708;37.644;2022-11-20T14:08:06;14.70;;;6.53;;
75785;SDS011;64402;44.708;37.644;2022-11-20T14:10:39;13.32;;;5.95;;
75785;SDS011;64402;44.708;37.644;2022-11-20T14:13:19;13.10;;;4.50;;
75785;SDS011;64402;44.708;37.644;2022-11-20T14:15:46;14.30;;;4.53;;
75785;SDS011;64402;44.708;37.644;2022-11-20T14:18:14;13.27;;;4.65;;
75785;SDS011;64402;44.708;37.644;2022-11-20T14:20:45;14.90;;;4.85;;
75785;SDS011;64402;44.708;37.644;2022-11-20T14:23:12;11.48;;;4.53;;
75785;SDS011;64402;44.708;37.644;2022-11-20T14:25:41;12.75;;;4.63;;
75785;SDS011;64402;44.708;37.644;2022-11-20T14:28:11;13.52;;;4.70;;
75785;SDS011;64402;44.708;37.644;2022-11-20T14:30:48;12.02;;;5.20;;
75785;SDS011;64402;44.708;37.644;2022-11-20T14:33:16;13.23;;;4.53;;
75785;SDS011;64402;44.708;37.644;2022-11-20T14:35:53;11.45;;;5.05;;
75785;SDS011;64402;44.708;37.644;2022-11-20T14:38:22;10.02;;;4.18;;
75785;SDS011;64402;44.708;37.644;2022-11-20T14:40:51;13.07;;;4.88;;
75785;SDS011;64402;44.708;37.644;2022-11-20T14:43:25;16.77;;;5.20;;
75785;SDS011;64402;44.708;37.644;2022-11-20T14:48:29;14.48;;;4.93;;
75785;SDS011;64402;44.708;37.644;2022-11-20T14:50:58;16.23;;;4.82;;
75785;SDS011;64402;44.708;37.644;2022-11-20T14:53:25;13.60;;;4.70;;
75785;SDS011;64402;44.708;37.644;2022-11-20T14:55:56;11.85;;;5.13;;
75785;SDS011;64402;44.708;37.644;2022-11-20T14:58:27;12.18;;;4.80;;
75785;SDS011;64402;44.708;37.644;2022-11-20T15:00:56;12.32;;;4.78;;
75785;SDS011;64402;44.708;37.644;2022-11-20T15:03:35;22.15;;;11.45;;
75785;SDS011;64402;44.708;37.644;2022-11-20T15:06:04;22.58;;;9.95;;
75785;SDS011;64402;44.708;37.644;2022-11-20T15:08:32;17.88;;;8.45;;
75785;SDS011;64402;44.708;37.644;2022-11-20T15:13:29;18.98;;;6.43;;
75785;SDS011;64402;44.708;37.644;2022-11-20T15:15:58;18.65;;;5.85;;
75785;SDS011;64402;44.708;37.644;2022-11-20T15:21:03;19.10;;;5.80;;
75785;SDS011;64402;44.708;37.644;2022-11-20T15:23:35;18.20;;;6.93;;
75785;SDS011;64402;44.708;37.644;2022-11-20T15:26:04;17.17;;;6.80;;
75785;SDS011;64402;44.708;37.644;2022-11-20T15:28:32;15.80;;;5.30;;
75785;SDS011;64402;44.708;37.644;2022-11-20T15:31:01;16.88;;;4.63;;
75785;SDS011;64402;44.708;37.644;2022-11-20T15:33:29;15.60;;;4.95;;
75785;SDS011;64402;44.708;37.644;2022-11-20T15:35:57;11.88;;;4.88;;
75785;SDS011;64402;44.708;37.644;2022-11-20T15:38:25;14.27;;;4.95;;
75785;SDS011;64402;44.708;37.644;2022-11-20T15:40:52;17.80;;;5.72;;
75785;SDS011;64402;44.708;37.644;2022-11-20T15:43:19;14.90;;;5.05;;
75785;SDS011;64402;44.708;37.644;2022-11-20T15:45:53;18.83;;;5.07;;
75785;SDS011;64402;44.708;37.644;2022-11-20T15:48:51;12.00;;;4.10;;
75785;SDS011;64402;44.708;37.644;2022-11-20T15:53:55;13.52;;;5.03;;
75785;SDS011;64402;44.708;37.644;2022-11-20T15:56:22;11.18;;;4.65;;
75785;SDS011;64402;44.708;37.644;2022-11-20T15:58:51;11.93;;;5.10;;
75785;SDS011;64402;44.708;37.644;2022-11-20T16:01:18;14.48;;;5.07;;
75785;SDS011;64402;44.708;37.644;2022-11-20T16:03:47;11.88;;;4.88;;
75785;SDS011;64402;44.708;37.644;2022-11-20T16:06:14;13.38;;;4.85;;
75785;SDS011;64402;44.708;37.644;2022-11-20T16:08:42;14.95;;;4.97;;
75785;SDS011;64402;44.708;37.644;2022-11-20T16:11:13;14.93;;;5.18;;
75785;SDS011;64402;44.708;37.644;2022-11-20T16:13:41;17.73;;;4.80;;
75785;SDS011;64402;44.708;37.644;2022-11-20T16:16:30;15.10;;;5.15;;
75785;SDS011;64402;44.708;37.644;2022-11-20T16:19:01;14.55;;;4.50;;
75785;SDS011;64402;44.708;37.644;2022-11-20T16:21:28;11.38;;;4.15;;
75785;SDS011;64402;44.708;37.644;2022-11-20T16:24:02;19.27;;;4.32;;
75785;SDS011;64402;44.708;37.644;2022-11-20T16:26:33;14.40;;;4.65;;
75785;SDS011;64402;44.708;37.644;2022-11-20T16:29:01;16.85;;;3.97;;
75785;SDS011;64402;44.708;37.644;2022-11-20T16:31:28;15.93;;;4.10;;
75785;SDS011;64402;44.708;37.644;2022-11-20T16:33:56;9.82;;;3.40;;
75785;SDS011;64402;44.708;37.644;2022-11-20T16:36:25;14.68;;;3.47;;
75785;SDS011;64402;44.708;37.644;2022-11-20T16:38:57;12.88;;;3.67;;
75785;SDS011;64402;44.708;37.644;2022-11-20T16:41:26;12.20;;;4.20;;
75785;SDS011;64402;44.708;37.644;2022-11-20T16:43:55;12.48;;;4.00;;
75785;SDS011;64402;44.708;37.644;2022-11-20T16:46:24;14.60;;;5.00;;
75785;SDS011;64402;44.708;37.644;2022-11-20T16:49:05;18.48;;;4.82;;
75785;SDS011;64402;44.708;37.644;2022-11-20T16:51:36;18.83;;;4.80;;
75785;SDS011;64402;44.708;37.644;2022-11-20T16:58:14;11.55;;;4.38;;
75785;SDS011;64402;44.708;37.644;2022-11-20T17:00:41;15.95;;;5.15;;
75785;SDS011;64402;44.708;37.644;2022-11-20T17:03:08;13.52;;;4.40;;
75785;SDS011;64402;44.708;37.644;2022-11-20T17:05:34;15.25;;;4.50;;
75785;SDS011;64402;44.708;37.644;2022-11-20T17:08:01;11.75;;;4.80;;
75785;SDS011;64402;44.708;37.644;2022-11-20T17:12:55;16.40;;;4.85;;
75785;SDS011;64402;44.708;37.644;2022-11-20T17:15:21;16.98;;;5.18;;
75785;SDS011;64402;44.708;37.644;2022-11-20T17:17:48;15.18;;;4.65;;
75785;SDS011;64402;44.708;37.644;2022-11-20T17:20:14;17.85;;;4.68;;
75785;SDS011;64402;44.708;37.644;2022-11-20T17:22:41;14.55;;;5.05;;
75785;SDS011;64402;44.708;37.644;2022-11-20T17:25:07;19.80;;;4.18;;
75785;SDS011;64402;44.708;37.644;2022-11-20T17:27:34;14.35;;;4.80;;
75785;SDS011;64402;44.708;37.644;2022-11-20T17:30:00;14.85;;;4.25;;
75785;SDS011;64402;44.708;37.644;2022-11-20T17:32:27;19.63;;;5.00;;
75785;SDS011;64402;44.708;37.644;2022-11-20T17:34:53;11.45;;;4.05;;
75785;SDS011;64402;44.708;37.644;2022-11-20T17:37:21;13.40;;;4.97;;
75785;SDS011;64402;44.708;37.644;2022-11-20T17:39:47;18.20;;;4.32;;
75785;SDS011;64402;44.708;37.644;2022-11-20T17:42:14;12.93;;;4.15;;
75785;SDS011;64402;44.708;37.644;2022-11-20T17:49:54;28.35;;;4.30;;
75785;SDS011;64402;44.708;37.644;2022-11-20T17:52:20;18.08;;;4.38;;
75785;SDS011;64402;44.708;37.644;2022-11-20T17:54:48;13.68;;;4.15;;
75785;SDS011;64402;44.708;37.644;2022-11-20T17:57:14;15.85;;;4.18;;
75785;SDS011;64402;44.708;37.644;2022-11-20T17:59:59;15.25;;;4.15;;
75785;SDS011;64402;44.708;37.644;2022-11-20T18:02:25;15.60;;;4.13;;
75785;SDS011;64402;44.708;37.644;2022-11-20T18:04:52;12.05;;;3.92;;
75785;SDS011;64402;44.708;37.644;2022-11-20T18:07:19;11.38;;;3.80;;
75785;SDS011;64402;44.708;37.644;2022-11-20T18:09:45;14.73;;;3.50;;
75785;SDS011;64402;44.708;37.644;2022-11-20T18:12:12;11.52;;;3.40;;
75785;SDS011;64402;44.708;37.644;2022-11-20T18:14:38;11.50;;;4.00;;
75785;SDS011;64402;44.708;37.644;2022-11-20T18:17:07;12.52;;;4.13;;
75785;SDS011;64402;44.708;37.644;2022-11-20T18:19:37;11.43;;;3.70;;
75785;SDS011;64402;44.708;37.644;2022-11-20T18:22:05;10.90;;;4.55;;
75785;SDS011;64402;44.708;37.644;2022-11-20T18:24:32;10.15;;;3.78;;
75785;SDS011;64402;44.708;37.644;2022-11-20T18:27:01;8.20;;;3.70;;
75785;SDS011;64402;44.708;37.644;2022-11-20T18:29:29;10.77;;;3.10;;
75785;SDS011;64402;44.708;37.644;2022-11-20T18:31:57;10.23;;;3.47;;
75785;SDS011;64402;44.708;37.644;2022-11-20T18:34:24;11.05;;;3.05;;
75785;SDS011;64402;44.708;37.644;2022-11-20T18:36:51;10.68;;;3.63;;
75785;SDS011;64402;44.708;37.644;2022-11-20T18:39:18;13.95;;;3.72;;
75785;SDS011;64402;44.708;37.644;2022-11-20T18:41:45;8.20;;;3.50;;
75785;SDS011;64402;44.708;37.644;2022-11-20T18:44:30;13.70;;;3.85;;
75785;SDS011;64402;44.708;37.644;2022-11-20T18:47:21;10.35;;;3.33;;
75785;SDS011;64402;44.708;37.644;2022-11-20T18:49:53;10.25;;;3.65;;
75785;SDS011;64402;44.708;37.644;2022-11-20T18:52:29;9.55;;;2.70;;
75785;SDS011;64402;44.708;37.644;2022-11-20T18:55:00;12.75;;;3.60;;
75785;SDS011;64402;44.708;37.644;2022-11-20T18:57:28;11.13;;;3.58;;
75785;SDS011;64402;44.708;37.644;2022-11-20T18:59:55;12.25;;;3.70;;
75785;SDS011;64402;44.708;37.644;2022-11-20T19:02:25;9.52;;;2.90;;
75785;SDS011;64402;44.708;37.644;2022-11-20T19:04:55;10.27;;;3.03;;
75785;SDS011;64402;44.708;37.644;2022-11-20T19:07:22;13.45;;;3.83;;
75785;SDS011;64402;44.708;37.644;2022-11-20T19:09:49;10.45;;;3.45;;
75785;SDS011;64402;44.708;37.644;2022-11-20T19:12:17;11.38;;;3.40;;
75785;SDS011;64402;44.708;37.644;2022-11-20T19:14:44;8.60;;;2.72;;
75785;SDS011;64402;44.708;37.644;2022-11-20T19:17:11;12.98;;;3.47;;
75785;SDS011;64402;44.708;37.644;2022-11-20T19:19:39;14.23;;;3.63;;
75785;SDS011;64402;44.708;37.644;2022-11-20T19:22:05;9.18;;;2.92;;
75785;SDS011;64402;44.708;37.644;2022-11-20T19:24:33;11.40;;;3.17;;
75785;SDS011;64402;44.708;37.644;2022-11-20T19:27:00;8.80;;;2.60;;
75785;SDS011;64402;44.708;37.644;2022-11-20T19:29:26;10.65;;;3.70;;
75785;SDS011;64402;44.708;37.644;2022-11-20T19:31:54;12.77;;;3.30;;
75785;SDS011;64402;44.708;37.644;2022-11-20T19:34:20;9.52;;;3.20;;
75785;SDS011;64402;44.708;37.644;2022-11-20T19:36:47;12.00;;;3.58;;
75785;SDS011;64402;44.708;37.644;2022-11-20T19:39:14;9.15;;;2.80;;
75785;SDS011;64402;44.708;37.644;2022-11-20T19:41:41;10.68;;;2.60;;
75785;SDS011;64402;44.708;37.644;2022-11-20T19:44:12;9.13;;;3.05;;
75785;SDS011;64402;44.708;37.644;2022-11-20T19:46:40;7.18;;;3.00;;
75785;SDS011;64402;44.708;37.644;2022-11-20T19:49:07;9.75;;;3.38;;
75785;SDS011;64402;44.708;37.644;2022-11-20T19:51:37;10.60;;;2.97;;
75785;SDS011;64402;44.708;37.644;2022-11-20T19:54:05;12.60;;;3.72;;
75785;SDS011;64402;44.708;37.644;2022-11-20T19:56:32;14.25;;;3.40;;
75785;SDS011;64402;44.708;37.644;2022-11-20T20:01:27;9.77;;;3.15;;
75785;SDS011;64402;44.708;37.644;2022-11-20T20:03:56;7.85;;;3.05;;
75785;SDS011;64402;44.708;37.644;2022-11-20T20:06:30;7.05;;;2.95;;
75785;SDS011;64402;44.708;37.644;2022-11-20T20:09:00;8.05;;;2.80;;
75785;SDS011;64402;44.708;37.644;2022-11-20T20:11:29;13.13;;;3.33;;
75785;SDS011;64402;44.708;37.644;2022-11-20T20:14:01;9.77;;;3.30;;
75785;SDS011;64402;44.708;37.644;2022-11-20T20:16:28;8.57;;;3.13;;
75785;SDS011;64402;44.708;37.644;2022-11-20T20:18:59;9.55;;;3.45;;
75785;SDS011;64402;44.708;37.644;2022-11-20T20:21:26;13.30;;;3.65;;
75785;SDS011;64402;44.708;37.644;2022-11-20T20:23:55;8.75;;;3.15;;
75785;SDS011;64402;44.708;37.644;2022-11-20T20:26:23;12.82;;;3.10;;
75785;SDS011;64402;44.708;37.644;2022-11-20T20:28:50;8.50;;;3.33;;
75785;SDS011;64402;44.708;37.644;2022-11-20T20:31:18;9.70;;;3.20;;
75785;SDS011;64402;44.708;37.644;2022-11-20T20:33:46;8.88;;;2.65;;
75785;SDS011;64402;44.708;37.644;2022-11-20T20:36:14;10.40;;;3.03;;
75785;SDS011;64402;44.708;37.644;2022-11-20T20:38:42;8.73;;;2.70;;
75785;SDS011;64402;44.708;37.644;2022-11-20T20:41:11;8.82;;;2.72;;
75785;SDS011;64402;44.708;37.644;2022-11-20T20:43:38;16.13;;;3.13;;
75785;SDS011;64402;44.708;37.644;2022-11-20T20:46:23;10.38;;;2.97;;
75785;SDS011;64402;44.708;37.644;2022-11-20T20:48:50;8.50;;;2.90;;
75785;SDS011;64402;44.708;37.644;2022-11-20T20:51:17;7.97;;;2.78;;
75785;SDS011;64402;44.708;37.644;2022-11-20T20:53:45;7.80;;;3.08;;
75785;SDS011;64402;44.708;37.644;2022-11-20T20:56:11;8.55;;;3.33;;
75785;SDS011;64402;44.708;37.644;2022-11-20T20:58:39;8.82;;;2.70;;
75785;SDS011;64402;44.708;37.644;2022-11-20T21:01:15;10.07;;;3.38;;
75785;SDS011;64402;44.708;37.644;2022-11-20T21:03:42;8.15;;;2.97;;
75785;SDS011;64402;44.708;37.644;2022-11-20T21:06:09;8.75;;;2.50;;
75785;SDS011;64402;44.708;37.644;2022-11-20T21:08:37;10.32;;;2.85;;
75785;SDS011;64402;44.708;37.644;2022-11-20T21:11:05;11.02;;;2.92;;
75785;SDS011;64402;44.708;37.644;2022-11-20T21:13:34;12.95;;;3.22;;
75785;SDS011;64402;44.708;37.644;2022-11-20T21:16:02;10.35;;;2.97;;
75785;SDS011;64402;44.708;37.644;2022-11-20T21:18:29;11.18;;;2.92;;
75785;SDS011;64402;44.708;37.644;2022-11-20T21:20:58;10.80;;;3.15;;
75785;SDS011;64402;44.708;37.644;2022-11-20T21:23:46;9.27;;;3.72;;
75785;SDS011;64402;44.708;37.644;2022-11-20T21:26:13;8.93;;;2.35;;
75785;SDS011;64402;44.708;37.644;2022-11-20T21:28:41;8.23;;;2.95;;
75785;SDS011;64402;44.708;37.644;2022-11-20T21:31:09;10.73;;;2.92;;
75785;SDS011;64402;44.708;37.644;2022-11-20T21:33:41;11.32;;;3.00;;
75785;SDS011;64402;44.708;37.644;2022-11-20T21:36:09;7.80;;;2.72;;
75785;SDS011;64402;44.708;37.644;2022-11-20T21:38:38;9.48;;;3.13;;
75785;SDS011;64402;44.708;37.644;2022-11-20T21:41:05;9.20;;;3.00;;
75785;SDS011;64402;44.708;37.644;2022-11-20T21:43:32;9.23;;;3.03;;
75785;SDS011;64402;44.708;37.644;2022-11-20T21:46:00;8.85;;;2.70;;
75785;SDS011;64402;44.708;37.644;2022-11-20T21:48:31;8.90;;;2.92;;
75785;SDS011;64402;44.708;37.644;2022-11-20T21:51:06;9.30;;;2.95;;
75785;SDS011;64402;44.708;37.644;2022-11-20T21:53:34;8.95;;;2.85;;
75785;SDS011;64402;44.708;37.644;2022-11-20T21:56:01;5.93;;;2.33;;
75785;SDS011;64402;44.708;37.644;2022-11-20T21:58:29;10.65;;;3.00;;
75785;SDS011;64402;44.708;37.644;2022-11-20T22:00:56;10.48;;;3.40;;
75785;SDS011;64402;44.708;37.644;2022-11-20T22:03:23;8.85;;;3.05;;
75785;SDS011;64402;44.708;37.644;2022-11-20T22:05:53;12.65;;;3.72;;
75785;SDS011;64402;44.708;37.644;2022-11-20T22:08:24;10.32;;;3.25;;
75785;SDS011;64402;44.708;37.644;2022-11-20T22:10:58;11.43;;;3.38;;
75785;SDS011;64402;44.708;37.644;2022-11-20T22:13:26;10.00;;;3.20;;
75785;SDS011;64402;44.708;37.644;2022-11-20T22:16:12;14.13;;;3.38;;
75785;SDS011;64402;44.708;37.644;2022-11-20T22:18:46;9.90;;;3.47;;
75785;SDS011;64402;44.708;37.644;2022-11-20T22:21:15;10.85;;;3.67;;
75785;SDS011;64402;44.708;37.644;2022-11-20T22:23:43;10.63;;;3.20;;
75785;SDS011;64402;44.708;37.644;2022-11-20T22:26:10;14.50;;;4.15;;
75785;SDS011;64402;44.708;37.644;2022-11-20T22:28:38;9.82;;;2.85;;
75785;SDS011;64402;44.708;37.644;2022-11-20T22:31:06;11.07;;;3.72;;
75785;SDS011;64402;44.708;37.644;2022-11-20T22:33:35;12.18;;;3.33;;
75785;SDS011;64402;44.708;37.644;2022-11-20T22:36:03;10.02;;;3.42;;
75785;SDS011;64402;44.708;37.644;2022-11-20T22:38:31;10.45;;;3.30;;
75785;SDS011;64402;44.708;37.644;2022-11-20T22:41:06;10.18;;;3.50;;
75785;SDS011;64402;44.708;37.644;2022-11-20T22:43:33;13.98;;;3.88;;
75785;SDS011;64402;44.708;37.644;2022-11-20T22:46:01;12.73;;;3.55;;
75785;SDS011;64402;44.708;37.644;2022-11-20T22:48:28;8.57;;;3.03;;
75785;SDS011;64402;44.708;37.644;2022-11-20T22:50:59;12.68;;;3.38;;
75785;SDS011;64402;44.708;37.644;2022-11-20T22:53:30;10.82;;;3.15;;
75785;SDS011;64402;44.708;37.644;2022-11-20T22:55:58;10.77;;;3.35;;
75785;SDS011;64402;44.708;37.644;2022-11-20T22:58:29;9.73;;;3.75;;
75785;SDS011;64402;44.708;37.644;2022-11-20T23:01:09;11.38;;;3.58;;
75785;SDS011;64402;44.708;37.644;2022-11-20T23:03:36;11.45;;;3.45;;
75785;SDS011;64402;44.708;37.644;2022-11-20T23:06:04;12.00;;;3.38;;
75785;SDS011;64402;44.708;37.644;2022-11-20T23:08:32;13.82;;;3.67;;
75785;SDS011;64402;44.708;37.644;2022-11-20T23:10:59;14.70;;;4.15;;
75785;SDS011;64402;44.708;37.644;2022-11-20T23:13:27;10.38;;;3.78;;
75785;SDS011;64402;44.708;37.644;2022-11-20T23:15:54;11.57;;;3.63;;
75785;SDS011;64402;44.708;37.644;2022-11-20T23:18:25;8.38;;;3.53;;
75785;SDS011;64402;44.708;37.644;2022-11-20T23:20:51;14.40;;;3.88;;
75785;SDS011;64402;44.708;37.644;2022-11-20T23:23:18;13.32;;;3.88;;
75785;SDS011;64402;44.708;37.644;2022-11-20T23:25:44;13.20;;;4.03;;
75785;SDS011;64402;44.708;37.644;2022-11-20T23:28:11;13.32;;;3.85;;
75785;SDS011;64402;44.708;37.644;2022-11-20T23:30:37;14.48;;;4.43;;
75785;SDS011;64402;44.708;37.644;2022-11-20T23:33:04;13.07;;;3.90;;
75785;SDS011;64402;44.708;37.644;2022-11-20T23:35:30;12.73;;;3.83;;
75785;SDS011;64402;44.708;37.644;2022-11-20T23:37:57;9.75;;;3.65;;
75785;SDS011;64402;44.708;37.644;2022-11-20T23:40:23;9.88;;;3.47;;
75785;SDS011;64402;44.708;37.644;2022-11-20T23:42:50;11.00;;;4.00;;
75785;SDS011;64402;44.708;37.644;2022-11-20T23:45:36;11.25;;;3.97;;
75785;SDS011;64402;44.708;37.644;2022-11-20T23:48:04;11.07;;;3.80;;
75785;SDS011;64402;44.708;37.644;2022-11-20T23:50:31;13.73;;;4.15;;
75785;SDS011;64402;44.708;37.644;2022-11-20T23:52:58;13.05;;;4.22;;
75785;SDS011;64402;44.708;37.644;2022-11-20T23:55:24;13.32;;;4.05;;
75785;SDS011;64402;44.708;37.644;2022-11-20T23:57:51;11.25;;;4.43;;
